cliquez pour ajouter le site Runraid à vos favoris  English version (google)  Retour à l'accueil Ecrire à l'auteur du site Runraid : Michel Jourdan



Les prochaines courses


Les derniers résultats

cliquez pour visualiser la page complète relatant la chronologie des éruptions du Piton de la Fournaise
éruptions Piton de la Fournaise


Ile de La Réunion

 Diagonale des Fous 

Ecrire au créateur du site : Michel Jourdan
Contact


2016-07-02 - Montagn Hard 38 de 2016

Pour consulter le palmarès d'un coureur, un clic sur son nom !

Vous avez des remarques, corrections, ... sur ces résultats , un clic sur --> pour me transmettre toute information concernant les classements


Montagn Hard 38 de 2016 - 2016 : classement des 180 finishers
Place Nom Temps Cat. Club Sexe Clt/cat.
Place Nom Temps Cat. Club Sexe Clt/cat.
1 Clermidy Marc 5:15:35 SEM Jogg Attitude / Wgtn The M 1101
2 Bouzon Lionel 5:18:11 V1M Bgsa ST PIERRE D (38830) M 1186
3 Haack Jean Christophe 5:20:07 SEM Team Rando Running Besan M 1197
4 Montegani Leo 5:29:45 SEM PRINGY (74370) M 1210
5 Jarru Florentin 5:33:25 SEM Le Kremlin Bicetre (9427 M 1079
6 Tedde Jonathan 5:48:39 SEM Saint Priest en Jarez (4 M 1107
7 Grimani Alain 5:56:15 SEM Raid Defi Sapeurs Pompie M 1230
8 Gely Daniel 5:59:23 V1M X Sport La Canourgue MEN M 1173
9 Mira Christophe 6:05:39 V2M Mont saxonnex (74130) M 1180
10 Rouyer Gregory 6:05:59 SEM VILLERS LeS NANCY (54600 M 1184
11 Francoz Jean Louis 6:08:28 SEM PASSY (74190) M 1228
12 Wery Laurent 6:14:37 V1M Caf Sallanches Passy (74 M 1006
13 Wibert Juliane 6:16:06 SEF F 1ere F 0
14 Pavard Olivier 6:19:38 SEM Team Shimizu Meudon (921 M 1026
15 Mazzucchelli Bruno 6:19:44 SEM Team Shimizu Ville d'Avr M 1027
16 Vulin Paul 6:20:16 V2M Cmbm CHAMONIX MONT BLANC M 1241
17 Very Damien 6:23:49 SEM fessy (74890) M 1109
18 Vignon Clement 6:26:31 SEM St Gervais les Bains (74 M 1002
19 Dequidt Celine 6:27:28 SEF VILLENEUVE D ASCQ (59491 F 2eme F 1013
20 Pelloy Sebastien 6:33:47 V1M Praz Montagne ST NICOLAS M 1212
21 Monnet Nicolas 6:34:38 V1M LES CONTAMINES (74170) M 1242
22 Gerard Nicolas 6:34:58 SEM Paris (75018) M 1049
23 Woznica Julien 6:37:25 SEM Team Running Planete Gen M 1219
24 Helfer Arthur 6:39:14 SEM Paris (75018) M 1139
25 Pezet Myriam 6:39:48 V1F DOMANCY (74700) F 3eme F 1213
26 Crequy Dominique 6:39:59 V1M colombes (92700) M 1051
27 Zanoni Jean Philippe 6:40:34 V1M MENTHON SAINT BERNARD M 1174
28 Cizeron Martin 6:46:03 JUM Lyon (69001) M 1201
29 Goncalves Cedric 6:46:23 SEM Why Running VIERZON (181 M 1029
30 Bibard Laurent 6:47:12 SEM Team Raidlight Papsy pon M 1113
31 Brewster James 6:48:45 SEM Adventrunning LONDON (00 M 1193
32 Hanrot Matthias 6:52:23 SEM Team Sport Aventure PONT M 1237
33 Socquet Juglard Thibault 6:53:26 SEM Sallanches (74700) M 1216
34 Simon Tony 6:55:13 V1M Dijon Single Track DIJON M 1065
35 Creuzet Jules 6:55:42 ESM MEILLONNAS (01370) M 1202
36 Garnesson Ludovic 6:57:38 SEM Fontaine (90150) M 1129
37 Cavet Max 6:57:45 V2M ONNION (74490) M 1220
38 Critin Clemence 6:57:51 SEF Les Contamines Montjoie F 1093
39 Signoud Damien 6:59:00 SEM La Ravoire (73490) M 1096
40 Camelin Laurent 6:59:10 SEM PREMANON (39220) M 1172
41 Baechelen Frederic 6:59:19 V1M Cmbm chedde (74190) M 1238
42 Michel Loic 7:00:43 SEM grenoble (38100) M 1103
43 Pageon Pierre 7:00:47 SEM Team Raidlight Paca / Ki M 1053
44 Reynier Benoit 7:01:39 SEM PRIGONRIEUX (24130) M 1234
45 Martelet Julien 7:02:59 V1M Lacets Du Lizon ST CLAUD M 1178
46 Meynet Meunier Etienne 7:03:35 ESM Lou Tavan Bellevaux (744 M 1074
47 Lay David 7:04:34 V1M Team Raidlight Saint Clo M 1168
48 Bertrand Cyril 7:07:17 V1M Caf Leman Le Biot (74430 M 1025
49 Septfons Romain 7:07:37 SEM Fontainebleau (77300) M 1146
50 Basle Francois 7:07:44 SEM M 1239
51 De Becquincourt Gontran 7:08:13 SEM TRAMELAN (2720) M 1225
52 Van Oostrum Alex 7:10:01 SEM Ar Adidas Trail Team LON M 1199
53 Mercier Jean Patrick 7:11:27 SEM La Roche sur Foron (7480 M 1232
54 Morand Gerard 7:11:49 V3M Praz Montagne praz sur a M 1233
55 Adamczyk Simon 7:14:41 SEM Team Rando Running Besan M 1161
56 Chey Paul 7:14:46 ESM DOLE (39100) M 1194
57 Malavielle Vivien 7:14:57 SEM Trailoutdoor69 Lyon (690 M 1209
58 Riotte Guillaume 7:15:31 SEM Les Cheres (69380) M 1095
59 Jublot Emmanuel 7:18:37 SEM Chartres Vertical Saint M 1010
60 Ruman Benjamin 7:20:53 SEM Caf Besancon BESANCON (2 M 1214
61 Derivaux Robin 7:25:09 SEM AMIENS (80160) M 1001
62 Cornillon Jean Paul 7:26:06 V2M Kikourou Lyon (69008) M 1054
63 Lybaert Bram 7:26:27 SEM None bonneville (74130) M 1208
64 Roux Anne Laure 7:29:29 ESF saint nicolas de veroce F 1235
65 Decouttere Dominique 7:30:32 V2M MEGEVE (74120) M 1243
66 Peltier Julien 7:31:15 SEM Chartres Vertical Chartr M 1009
67 Lagrange Matthieu 7:32:05 SEM Garmin Creteil (94000) M 1092
68 Esteves Sandra 7:32:31 V1F LYON (69003) F 1226
69 Journet William 7:34:15 V1M LYON (69004) M 1070
70 Mille Bastien 7:36:23 SEM Rando Running Besancon m M 1244
71 Moignoux Denis 7:37:46 V2M Stas Saint Etienne (4210 M 1135
72 Raux Etienne 7:39:17 SEM Paris (75018) M 1055
73 Blondy Baptiste 7:39:21 SEM VAUX SUR AURE (14400) M 1056
74 Creissels Didier 7:39:55 V1M X Sports La Canourgue me M 1160
75 Bruderli Yann 7:40:43 V1M Les Traines La Grole VEI M 1189
76 Basso Patrick 7:40:57 V1M Lestontontrailers PLAN D M 1163
77 Desnos Antoine 7:41:25 SEM Chantepie (35135) M 1170
78 Fortina Frederic 7:41:31 V1M passy (74190) M 1134
79 Vallet Benjamin 7:42:25 SEM Saint Cloud (92210) M 1165
80 Metge Jonathan 7:44:53 SEM Garmin Chatenay Malabry M 1067
81 Perotin Laurent 7:45:53 SEM Paris (75020) M 1140
82 Bordier Marion 7:48:06 SEF Chartres Vertical chartr F 1008
83 Le Metayer Maxence 7:48:09 SEM PARIS (75015) M 1145
84 Bouet Antoine 7:48:18 V2M VIROFLAY (78220) M 1246
85 Bottaro Veronique 7:48:20 V2F Le Cannet (06110) F 1179
86 Brunero Marc 7:50:51 V1M Team Trail Veolia Colomb M 1224
87 Kacki Stephane 7:51:24 V1M ONNION (74490) M 1231
88 Wadier Florent 7:52:22 SEM PARIS (75003) M 1185
89 Suiffet Pierre Jean 7:52:31 SEM Lyon (69002) M 1085
90 Perrault Guilhem 7:54:24 SEM Sam Paris 12 Vincennes ( M 1081
91 Jourdan Nathalie 7:55:14 V2F Kikourou / Raidlight Par F 1058
92 D'abrigeon Marie Laure 7:56:22 SEF Asvel lyon (69003) F 1031
93 Perruchon Jean Baptiste 8:01:03 V3M Trail Club Saint Gervais M 1024
94 Thomas Felicity 8:02:11 SEF EKETAHUNA (4993) F 1157
95 Mialle Maelane 8:03:25 SEF annecy le vieux (74940) F 1017
96 Molinier Patrick 8:09:21 V1M LES MOLUNES (39310) M 1181
97 Henot Stephane 8:10:04 V1M Lyon (69003) M 1032
98 Ducolone Martin 8:11:02 SEM LILLE (59800) M 1162
99 Flage Patrice 8:12:31 V3M Endurance Grignon Albert M 1227
100 Moignoux Kevin 8:12:45 SEM Saint Etienne (42100) M 1131
101 Sana Erwan 8:14:01 SEM Caraco' Trailers Noville M 1035
102 Clement Pierrick 8:17:16 V2M Le Plessis Grammoire (49 M 1059
103 Duflot Fabien 8:17:59 SEM LILLE (59000) M 1203
104 Maugain Annie 8:18:42 V1F chapelle d'huin (25270) F 1028
105 Macaigne Guillaume 8:18:44 V1M Chateaufort (78117) M 1076
106 De Jacquelot Heloise 8:18:58 SEF Azur Olympique Charenton F 1097
107 Maret Nicolas 8:19:18 V1M Rolex Montagne vetraz mo M 1144
108 Voisin Vincent 8:19:51 SEM Paris (75116) M 1218
109 Da Rocha Maxime 8:20:45 SEM Paris (75018) M 1004
110 Ponseau Marie 8:22:24 SEF HABeRE LULLIN (74420) F 1156
111 Josso Didier 8:22:54 V2M A S Air France ECOUEN (9 M 1206
112 Creuzet Karine 8:23:50 V1F MEILLONNAS (01370) F 1182
113 Creuzet Olivier 8:23:53 V1M MEILLONNAS (01370) M 1183
114 Bonnevault Christophe 8:27:50 V1M Gex (01170) M 1143
115 Jacottin Franck 8:27:51 V2M Annecy le Vieux M 1205
116 Perrault Olivier 8:28:07 V2M issy les moulineaux (921 M 1077
117 Delorme Romain 8:28:36 SEM GONDENANS LES MOULINS (2 M 1190
118 Farines Benoit 8:28:40 SEM PARIS (75019) M 1128
119 Le Goff Virgile 8:28:44 V1M Champagne Reims (51100) M 1012
120 Girardot Maxime 8:28:47 SEM AIX LES BAINS (73100) M 1191
121 Sanh Thomas 8:29:59 SEM Torcy montevrain (77144) M 1087
122 Gehant Matthieu 8:30:10 SEM VILLEURBANNE (69100) M 1142
123 Oeillet David 8:32:25 SEM Les clayes sous bois (78 M 1108
124 Cazali Damien 8:32:31 SEM COURBEVOIE (92400) M 1167
125 Goutelle Michel 8:36:00 V3M RIVOLET (69640) M 1222
126 Pham Patrick 8:36:37 SEM BUSSY SAINT GEORGES (776 M 1158
127 Gendrier Stephane 8:42:05 SEM Nature Sport Attitude Ch M 1126
128 Delvincourt Regis 8:44:05 SEM guesnain (59287) M 1169
129 Martin Mickael 8:45:19 SEM Annecy (74000) M 1060
130 Gandossi Alexandre 8:45:23 SEM Les Houches (74310) M 1064
131 Ruckstuhl Michel 8:46:03 V2M BEAUVAIS (60000) M 1089
132 Lonati Guillaume 8:46:37 SEM GENEVE (1203) M 1040
133 Soulet Pascale 8:53:02 V1F Pays Montbeliard Trail V F 1078
134 Pichonnet Gerard 8:53:04 V3M Eolia Normandie VAUX SUR M 1044
135 Nguyen Minh 8:54:44 SEM Triathlon Club Torcy sai M 1086
136 Lejeune Cecile 8:55:37 V1F F 1041
137 Lejeune Olivier 8:55:40 V1M Tri Veloce Saint Sebasti M 1042
138 Williams Jane 8:59:38 V1F St Gervais les Bains (74 F 1072
139 Desouza Goncalves Eduardo 8:59:55 SEM Paris (75013) M 1251
140 Cescon Adrien 9:00:03 SEM LILLE (59000) M 1223
141 Santini Alexandre 9:02:09 V1M Nantes (44200) M 1037
142 Pinsel Stephane 9:08:34 SEM Marne Et Gondoire Athlet M 1147
143 Moine Olivier 9:08:45 V1M Foulee Muroise genas (69 M 1021
144 Charvet Jerome 9:08:48 SEM Foulee Muroise Genas (69 M 1022
145 Buffard Arnaud 9:10:32 V1M Club Omnisport Clairvali M 1150
146 Vishnyakova Olga 9:10:48 SEF Vorobyovy Gory Moscow MO F 1217
147 Bridard Emmanuel 9:15:58 SEM carrieres sous poissy (7 M 1071
148 Peziere Florence 9:17:04 V2F Nature Sport Attitude MA F 1116
149 Howard Andrew 9:18:10 V2M Saint Gervais Les Bains M 1120
150 Mussard Jean Samuel 9:24:00 SEM LOGNES (77185) M 1198
151 Le Gallic Clelia 9:26:54 SEF Type 1 Running Team MONT F 1171
152 Dubois Dominique 9:27:00 V2M Saint Die des Vosges (88 M 1121
153 Lemoine Didier 9:29:05 V2M BAYEUX (14400) M 1176
154 De Jaegere Christiaan 9:30:07 V3M Sellarondatrailteam Klui M 1112
155 Petit Gats Alexis 9:30:23 V1M Champagne Reims (51100) M 1007
156 Becue Emmanuel 9:30:42 SEM Plaisir (78370) M 1102
157 Enjolras Jean Claude 9:32:16 V2M Kikourou LA BATIE DIVISI M 1195
158 Magnan Loic 9:37:08 SEM Le chesnay (78150) M 1073
159 Revol Olivier 9:42:52 V1M SATHONAY CAMP (69580) M 1117
160 Boucharel Philippe 9:45:57 V2M Psa Oxygene saclay (9140 M 1119
161 Van Nieuwenhuyze Eric 9:51:30 V1M Sella Ronda Team Dergnea M 1122
162 Lienard Christophe 9:53:04 V2M Beauvais (60000) M 1124
163 Rochat Jean Louis 9:54:55 V3M Rochat Team MARIN EPAGNI M 1048
164 Lenoir Stephane 9:55:15 V1M Amundi Asset Management M 1034
165 Gerard Etienne 9:58:38 SEM FAIMES (4317) M 1159
166 Deversenne Patrick 9:59:01 V3M VAUX /AURE (14400) M 1118
167 Fillatre Eric 9:59:04 V1M Oxygene Psa guyancourt ( M 1075
168 Weatherstone Hilary 9:59:23 V2F St Gervais Les Bains (74 F 1068
169 Chollet Marie Claire 10:06:34 SEF Ao Charenton MAISONS ALF F 1152
170 Ledesma Enrique 10:07:40 V1M CHELLES (77500) M 1084
171 Grand Lionel 10:12:30 V1M LIEGE (4000) M 1204
172 Groelly Pi Quentin 10:12:53 SEM Snecma Sport Villaroche M 1148
173 Thevenot Delphine 10:17:19 SEF Saint Gervais (74170) F 1236
174 Sobanski Benjamin 10:26:48 SEM LE FAYET (74170) M 1166
175 Nomme Esther 10:29:57 SEF Ao Charenton MARLY LE RO F 1133
176 Baudoin Raymond 10:39:28 V3M As Museum Chatillon (923 M 1164
177 Marty Xavier 10:48:31 V2M Ictus Beauvais (60000) M 1123
178 Desjonqueres Vincent 10:51:27 V1M Beauvais (60000) M 1082
179 Sadoine Yves 10:51:44 V2M Sella Ronda Team Ronse ( M 1111
180 Gautier Ariane 11:03:50 ESF LYON (69005) F 1229


ReferencementCe site est listé dans la catégorie Sport : Sports extrêmes Dictionnaire
| Accueil | La Réunion  Vue du ciel | Météo | Cyclones | Volcan | Cirques de Mafate , Cilaos , Salazie | Photos Randonnées | Randonnées Réunion: Randos Espiègle , Courses montagne | Diagonale des Fous |  Marathon des Sables | Voyages Les stats du site | Fonds écran | Plan du site | Blog de runraid | Galerie photos Sport Réunion |